Time;durP1;ratioP1;P1;durP2;ratioP2;P2;SDS_P1;SDS_P2;PMS_P1;PMS_P2;Temp;Humidity;BMP_temperature;BMP_pressure;BME280_temperature;BME280_humidity;BME280_pressure;Samples;Min_cycle;Max_cycle;Signal;HPM_P1;HPM_P2
2022/04/30 00:00:32;;;;;;;;;;;;;;;11.73;64.24;102136.25;5051941;28;20438;-73
2022/04/30 00:02:58;;;;;;;;;;;;;;;11.85;62.10;102137.06;5050691;28;19978;-73
2022/04/30 00:05:23;;;;;;;;;;;;;;;11.81;61.80;102137.06;5053010;28;19917;-77
2022/04/30 00:07:49;;;;;;;;;;;;;;;11.74;63.60;102140.59;5054157;28;19985;-77
2022/04/30 00:10:14;;;;;;;;;;;;;;;11.60;62.88;102138.00;5046505;28;19924;-77
2022/04/30 00:12:39;;;;;;;;;;;;;;;11.79;62.45;102138.81;5047758;28;20414;-77
2022/04/30 00:15:05;;;;;;;;;;;;;;;11.60;60.53;102135.41;5051943;28;20387;-77
2022/04/30 00:17:30;;;;;;;;;;;;;;;11.69;60.71;102137.97;5047593;28;19925;-76
2022/04/30 00:19:56;;;;;;;;;;;;;;;11.74;60.04;102133.63;5049239;28;20780;-77
2022/04/30 00:22:21;;;;;;;;;;;;;;;11.56;61.99;102138.91;5053194;28;20464;-77
2022/04/30 00:24:46;;;;;;;;;;;;;;;11.47;62.60;102134.56;5054618;28;19955;-73
2022/04/30 00:27:11;;;;;;;;;;;;;;;11.57;61.15;102143.22;5048121;28;19931;-73
2022/04/30 00:29:37;;;;;;;;;;;;;;;11.61;60.38;102131.94;5029816;28;19921;-73
2022/04/30 00:32:03;;;;;;;;;;;;;;;11.49;59.79;102132.00;5056016;28;19916;-77
2022/04/30 00:34:29;;;;;;;;;;;;;;;11.58;60.29;102134.56;5058083;28;19921;-73
2022/04/30 00:36:54;;;;;;;;;;;;;;;11.65;59.47;102132.81;5047988;28;19921;-73
2022/04/30 00:39:19;;;;;;;;;;;;;;;11.53;60.33;102131.97;5048310;28;19978;-73
2022/04/30 00:41:45;;;;;;;;;;;;;;;11.40;58.61;102134.63;5047534;28;20405;-73
2022/04/30 00:44:16;;;;;;;;;;;;;;;11.55;57.20;102130.25;5050926;28;19924;-73
2022/04/30 00:46:41;;;;;;;;;;;;;;;11.56;57.97;102131.94;5046863;28;19920;-73
2022/04/30 00:49:07;;;;;;;;;;;;;;;11.29;59.19;102137.25;5045941;28;20374;-73
2022/04/30 00:51:35;;;;;;;;;;;;;;;11.17;59.86;102141.56;5063455;28;20040;-77
2022/04/30 00:54:01;;;;;;;;;;;;;;;11.27;59.76;102131.13;5048215;28;19925;-77
2022/04/30 00:56:31;;;;;;;;;;;;;;;11.20;58.93;102125.97;5047159;28;19924;-77
2022/04/30 00:58:57;;;;;;;;;;;;;;;11.35;58.64;102123.38;5044369;28;19967;-77
2022/04/30 01:01:24;;;;;;;;;;;;;;;11.37;58.74;102125.09;5049393;28;19921;-73
2022/04/30 01:03:49;;;;;;;;;;;;;;;11.15;58.59;102123.34;5048158;28;19932;-73
2022/04/30 01:06:15;;;;;;;;;;;;;;;11.06;59.05;102128.56;5048573;28;19920;-73
2022/04/30 01:08:40;;;;;;;;;;;;;;;11.11;58.02;102124.25;5050017;28;19921;-73
2022/04/30 01:11:06;;;;;;;;;;;;;;;11.33;57.61;102128.56;5043475;28;19971;-77
2022/04/30 01:13:35;;;;;;;;;;;;;;;11.15;57.49;102131.16;5043684;28;19925;-73
2022/04/30 01:16:04;;;;;;;;;;;;;;;11.09;56.62;102128.56;5042416;28;19955;-73
2022/04/30 01:18:33;;;;;;;;;;;;;;;11.15;58.08;102123.34;5048266;28;20449;-73
2022/04/30 01:21:06;;;;;;;;;;;;;;;11.04;57.99;102119.91;5047307;28;19921;-73
2022/04/30 01:23:32;;;;;;;;;;;;;;;11.07;57.91;102116.44;5044335;28;19974;-73
2022/04/30 01:25:59;;;;;;;;;;;;;;;11.24;58.96;102115.53;5043261;28;19925;-73
2022/04/30 01:28:24;;;;;;;;;;;;;;;11.29;58.01;102119.03;5045552;28;19920;-76
2022/04/30 01:30:49;;;;;;;;;;;;;;;11.12;59.74;102109.53;5047916;28;19931;-77
2022/04/30 01:38:42;;;;;;;;;;;;;;;11.09;58.18;102110.38;5056502;28;19927;-77
2022/04/30 01:41:07;;;;;;;;;;;;;;;11.28;58.85;102108.63;5048429;28;19920;-77
2022/04/30 01:43:33;;;;;;;;;;;;;;;11.25;57.90;102108.59;5045660;28;19972;-77
2022/04/30 01:45:59;;;;;;;;;;;;;;;11.14;58.27;102111.25;5046987;28;19921;-77
2022/04/30 01:48:25;;;;;;;;;;;;;;;11.30;57.43;102117.28;5044681;28;19929;-79
2022/04/30 01:50:52;;;;;;;;;;;;;;;11.30;58.38;102112.94;5048461;28;19921;-79
2022/04/30 01:53:18;;;;;;;;;;;;;;;11.27;58.55;102112.06;5043198;28;20414;-79
2022/04/30 01:55:43;;;;;;;;;;;;;;;11.12;58.57;102104.31;5047978;28;19920;-79
2022/04/30 01:58:09;;;;;;;;;;;;;;;11.15;59.06;102104.28;5047499;28;19928;-77
2022/04/30 02:00:34;;;;;;;;;;;;;;;11.10;58.98;102106.03;5045930;28;19948;-77
2022/04/30 02:03:09;;;;;;;;;;;;;;;11.22;58.36;102106.88;5047034;28;19987;-77
2022/04/30 02:05:36;;;;;;;;;;;;;;;11.22;59.16;102101.69;5048995;28;20031;-77
2022/04/30 02:08:04;;;;;;;;;;;;;;;11.13;59.77;102101.69;5048245;28;19917;-77
2022/04/30 02:10:29;;;;;;;;;;;;;;;10.83;60.05;102097.41;5048449;28;19975;-76
2022/04/30 02:12:55;;;;;;;;;;;;;;;11.01;59.83;102101.72;5051120;28;19948;-77
2022/04/30 02:15:20;;;;;;;;;;;;;;;11.16;59.62;102098.22;5046948;28;19936;-77
2022/04/30 02:17:49;;;;;;;;;;;;;;;11.12;57.71;102101.72;5047840;28;19936;-77
2022/04/30 02:20:18;;;;;;;;;;;;;;;11.02;59.24;102098.25;5046081;28;19917;-77
2022/04/30 02:22:44;;;;;;;;;;;;;;;11.11;59.29;102095.66;5046063;28;19983;-77
2022/04/30 02:25:12;;;;;;;;;;;;;;;11.02;59.04;102099.13;5047532;28;19925;-79
2022/04/30 02:27:38;;;;;;;;;;;;;;;11.04;59.10;102093.91;5045772;28;20436;-79
2022/04/30 02:30:05;;;;;;;;;;;;;;;11.06;59.72;102099.13;5044062;28;19924;-79
2022/04/30 02:32:39;;;;;;;;;;;;;;;11.00;58.59;102089.56;5060904;28;20007;-79
2022/04/30 02:35:05;;;;;;;;;;;;;;;11.02;56.69;102091.34;5045512;28;19964;-79
2022/04/30 02:37:30;;;;;;;;;;;;;;;11.09;56.29;102089.56;5044579;28;19959;-79
2022/04/30 02:39:56;;;;;;;;;;;;;;;10.76;57.05;102087.03;5047204;28;19955;-79
2022/04/30 02:42:21;;;;;;;;;;;;;;;10.86;57.35;102088.72;5044751;28;20593;-77
2022/04/30 02:44:46;;;;;;;;;;;;;;;10.90;56.16;102085.28;5047174;28;20007;-77
2022/04/30 02:47:11;;;;;;;;;;;;;;;11.02;55.82;102088.72;5038830;28;20019;-73
2022/04/30 02:49:38;;;;;;;;;;;;;;;10.95;56.56;102086.13;5044129;28;19927;-78
2022/04/30 02:52:03;;;;;;;;;;;;;;;10.85;56.68;102084.44;5039330;28;19928;-79
2022/04/30 02:54:30;;;;;;;;;;;;;;;10.84;57.09;102085.28;5042855;28;19920;-79
2022/04/30 02:56:56;;;;;;;;;;;;;;;10.73;57.50;102081.84;5043139;28;19921;-79
2022/04/30 03:02:05;;;;;;;;;;;;;;;11.09;55.88;102080.91;5050919;28;19978;-73
2022/04/30 03:04:31;;;;;;;;;;;;;;;10.77;57.52;102080.94;5047380;28;19959;-73
2022/04/30 03:06:56;;;;;;;;;;;;;;;10.84;57.12;102083.56;5047564;28;20528;-77
2022/04/30 03:09:21;;;;;;;;;;;;;;;10.84;57.64;102086.16;5048469;28;20643;-77
2022/04/30 03:11:47;;;;;;;;;;;;;;;10.82;56.36;102074.88;5048846;28;19932;-77
2022/04/30 03:14:13;;;;;;;;;;;;;;;10.87;57.84;102080.06;5048455;28;20012;-77
2022/04/30 03:22:06;;;;;;;;;;;;;;;10.81;58.27;102080.97;5045424;28;20018;-79
2022/04/30 03:24:32;;;;;;;;;;;;;;;10.72;57.21;102083.56;5043750;28;20364;-79
2022/04/30 03:26:57;;;;;;;;;;;;;;;10.85;55.85;102080.06;5047163;28;20429;-73
2022/04/30 03:29:23;;;;;;;;;;;;;;;11.00;55.06;102072.25;5045285;28;19936;-73
2022/04/30 03:31:49;;;;;;;;;;;;;;;10.93;55.89;102083.53;5045743;28;19943;-77
2022/04/30 03:34:14;;;;;;;;;;;;;;;10.74;56.63;102079.22;5050328;28;20294;-79
2022/04/30 03:36:40;;;;;;;;;;;;;;;10.64;57.71;102077.47;5059176;28;20015;-79
2022/04/30 03:39:05;;;;;;;;;;;;;;;10.68;57.91;102074.03;5034460;28;19928;-79
2022/04/30 03:41:31;;;;;;;;;;;;;;;10.82;56.77;102072.28;5044054;28;19917;-79
2022/04/30 03:43:57;;;;;;;;;;;;;;;10.75;56.87;102067.09;5043356;28;20382;-79
2022/04/30 03:46:22;;;;;;;;;;;;;;;10.97;56.29;102071.38;5042445;28;19974;-79
2022/04/30 03:48:51;;;;;;;;;;;;;;;10.66;56.95;102073.16;5042214;28;20301;-79
2022/04/30 03:51:16;;;;;;;;;;;;;;;10.68;55.94;102076.63;5043215;28;19927;-79
2022/04/30 03:53:42;;;;;;;;;;;;;;;10.69;56.19;102078.38;5041018;28;20305;-78
2022/04/30 03:56:08;;;;;;;;;;;;;;;10.56;56.41;102075.75;5046315;28;19975;-79
2022/04/30 03:58:33;;;;;;;;;;;;;;;10.58;57.34;102074.03;5038306;28;19921;-79
2022/04/30 04:00:58;;;;;;;;;;;;;;;10.49;55.89;102072.31;5061932;28;20290;-79
2022/04/30 04:03:24;;;;;;;;;;;;;;;10.80;55.45;102076.63;5045923;28;19986;-77
2022/04/30 04:05:49;;;;;;;;;;;;;;;10.56;56.52;102076.63;5044961;28;19931;-77
2022/04/30 04:08:15;;;;;;;;;;;;;;;10.57;55.50;102083.56;5046497;28;19917;-77
2022/04/30 04:10:41;;;;;;;;;;;;;;;10.65;55.36;102081.81;5045210;28;19925;-77
2022/04/30 04:18:34;;;;;;;;;;;;;;;10.51;56.03;102091.34;5049927;28;19943;-77
2022/04/30 04:21:00;;;;;;;;;;;;;;;10.71;55.83;102084.41;5046169;28;20381;-73
2022/04/30 04:23:25;;;;;;;;;;;;;;;10.23;55.51;102100.84;5046760;28;19959;-73
2022/04/30 04:26:00;;;;;;;;;;;;;;;10.50;54.71;102100.00;5048327;28;20325;-76
2022/04/30 04:28:26;;;;;;;;;;;;;;;10.49;54.82;102100.03;5049670;28;19921;-77
2022/04/30 04:30:51;;;;;;;;;;;;;;;10.39;55.48;102097.41;5043266;28;20149;-77
2022/04/30 04:33:16;;;;;;;;;;;;;;;10.41;55.24;102106.06;5050115;28;19971;-77
2022/04/30 04:35:42;;;;;;;;;;;;;;;10.14;55.71;102103.41;5043749;28;19928;-73
2022/04/30 04:38:07;;;;;;;;;;;;;;;10.18;57.04;102110.38;5044283;28;19931;-73
2022/04/30 04:40:35;;;;;;;;;;;;;;;10.39;55.49;102113.00;5046240;28;19928;-77
2022/04/30 04:43:00;;;;;;;;;;;;;;;10.23;55.35;102119.03;5049130;28;20409;-77
2022/04/30 04:45:27;;;;;;;;;;;;;;;10.08;55.55;102116.38;5046340;28;19925;-77
2022/04/30 04:47:52;;;;;;;;;;;;;;;10.36;55.67;102120.78;5046828;28;19921;-77
2022/04/30 04:50:17;;;;;;;;;;;;;;;10.42;54.81;102120.81;5045747;28;19925;-77
2022/04/30 04:52:43;;;;;;;;;;;;;;;10.29;55.63;102125.94;5048135;28;19920;-77
2022/04/30 04:55:09;;;;;;;;;;;;;;;10.31;54.86;102126.84;5047347;28;20322;-77
2022/04/30 04:57:34;;;;;;;;;;;;;;;10.22;55.04;102126.81;5045648;28;19986;-73
2022/04/30 05:00:00;;;;;;;;;;;;;;;10.05;57.41;102134.56;5046245;28;20369;-73
2022/04/30 05:02:25;;;;;;;;;;;;;;;9.99;55.42;102133.69;5050546;28;19932;-76
2022/04/30 05:04:50;;;;;;;;;;;;;;;10.22;56.22;102139.81;5048212;28;19960;-77
2022/04/30 05:07:16;;;;;;;;;;;;;;;10.16;55.26;102142.41;5045355;28;20424;-77
2022/04/30 05:09:41;;;;;;;;;;;;;;;10.42;54.13;102141.59;5049380;28;19920;-77
2022/04/30 05:12:07;;;;;;;;;;;;;;;10.16;56.10;102145.00;5048124;28;20301;-73
2022/04/30 05:14:33;;;;;;;;;;;;;;;10.18;55.35;102140.66;5046652;28;19975;-73
2022/04/30 05:16:58;;;;;;;;;;;;;;;10.20;56.29;102144.97;5048512;28;19921;-73
2022/04/30 05:19:24;;;;;;;;;;;;;;;10.05;56.54;102152.72;5048201;28;20006;-73
2022/04/30 05:21:49;;;;;;;;;;;;;;;10.37;56.01;102148.47;5048886;28;19928;-73
2022/04/30 05:24:14;;;;;;;;;;;;;;;10.23;56.33;102144.13;5049589;28;19921;-73
2022/04/30 05:26:39;;;;;;;;;;;;;;;10.10;56.17;102147.56;5049806;28;19921;-73
2022/04/30 05:29:06;;;;;;;;;;;;;;;10.34;55.53;102155.41;5049120;28;19924;-79
2022/04/30 05:31:31;;;;;;;;;;;;;;;10.35;55.09;102149.34;5047691;28;19932;-73
2022/04/30 05:33:56;;;;;;;;;;;;;;;10.05;56.44;102147.53;5048090;28;19974;-73
2022/04/30 05:36:22;;;;;;;;;;;;;;;10.13;56.55;102151.03;5047590;28;20504;-73
2022/04/30 05:38:47;;;;;;;;;;;;;;;10.17;54.55;102150.16;5029806;28;20024;-73
2022/04/30 05:41:12;;;;;;;;;;;;;;;10.31;54.71;102152.81;5047550;28;19927;-73
2022/04/30 05:43:38;;;;;;;;;;;;;;;10.41;53.99;102149.34;5044732;28;19925;-73
2022/04/30 05:46:03;;;;;;;;;;;;;;;10.22;54.28;102160.59;5046109;28;19983;-73
2022/04/30 05:48:29;;;;;;;;;;;;;;;10.34;53.91;102152.81;5044767;28;19974;-73
2022/04/30 05:50:54;;;;;;;;;;;;;;;10.23;54.26;102151.91;5044878;28;19928;-73
2022/04/30 05:53:20;;;;;;;;;;;;;;;10.04;53.89;102156.22;5043955;28;19927;-73
2022/04/30 05:55:45;;;;;;;;;;;;;;;10.14;54.47;102160.53;5046772;28;19917;-73
2022/04/30 05:58:10;;;;;;;;;;;;;;;9.98;54.33;102163.09;5045239;28;20465;-73
2022/04/30 06:00:36;;;;;;;;;;;;;;;10.21;54.58;102162.31;5043196;28;20543;-73
2022/04/30 06:03:01;;;;;;;;;;;;;;;10.26;54.28;102163.19;5043194;28;19956;-76
2022/04/30 06:05:26;;;;;;;;;;;;;;;10.34;54.74;102171.00;5044372;28;19925;-79
2022/04/30 06:07:53;;;;;;;;;;;;;;;10.14;53.94;102172.66;5048011;28;20348;-77
2022/04/30 06:10:19;;;;;;;;;;;;;;;10.18;54.99;102174.41;5046041;28;19929;-77
2022/04/30 06:12:44;;;;;;;;;;;;;;;10.31;55.19;102171.88;5041895;28;19975;-77
2022/04/30 06:15:09;;;;;;;;;;;;;;;10.21;54.47;102174.41;5042962;28;19928;-73
2022/04/30 06:17:35;;;;;;;;;;;;;;;10.13;53.58;102174.41;5045695;28;19956;-73
2022/04/30 06:20:00;;;;;;;;;;;;;;;10.02;53.92;102180.44;5047300;28;19961;-73
2022/04/30 06:22:26;;;;;;;;;;;;;;;10.14;54.62;102183.03;5046667;28;19925;-73
2022/04/30 06:24:51;;;;;;;;;;;;;;;10.10;53.67;102176.13;5047528;28;19952;-73
2022/04/30 06:27:17;;;;;;;;;;;;;;;10.16;53.96;102178.75;5025178;28;19951;-73
2022/04/30 06:29:42;;;;;;;;;;;;;;;10.27;54.44;102169.25;5045408;28;20484;-77
2022/04/30 06:32:08;;;;;;;;;;;;;;;10.41;52.57;102175.34;5049146;28;19963;-77
2022/04/30 06:34:33;;;;;;;;;;;;;;;10.36;53.25;102180.53;5044036;28;19921;-77
2022/04/30 06:36:58;;;;;;;;;;;;;;;10.53;52.53;102180.56;5049350;28;19951;-79
2022/04/30 06:39:23;;;;;;;;;;;;;;;10.05;54.15;102181.28;5044533;28;19947;-79
2022/04/30 06:41:49;;;;;;;;;;;;;;;10.50;53.79;102184.88;5045939;28;19928;-79
2022/04/30 06:44:14;;;;;;;;;;;;;;;10.32;53.80;102181.38;5041464;28;19925;-79
2022/04/30 06:46:39;;;;;;;;;;;;;;;10.46;53.75;102184.88;5051128;28;19935;-77
2022/04/30 06:49:05;;;;;;;;;;;;;;;10.28;54.45;102190.03;5047134;28;19932;-77
2022/04/30 06:51:30;;;;;;;;;;;;;;;10.33;53.86;102184.84;5047134;28;20526;-73
2022/04/30 06:59:23;;;;;;;;;;;;;;;10.61;52.26;102175.38;5050708;28;19959;-77
2022/04/30 07:02:01;;;;;;;;;;;;;;;10.53;52.49;102184.88;5049352;28;19921;-77
2022/04/30 07:04:28;;;;;;;;;;;;;;;10.58;53.47;102184.06;5046590;28;20393;-77
2022/04/30 07:06:53;;;;;;;;;;;;;;;10.50;52.88;102180.53;5040208;28;19920;-73
2022/04/30 07:09:19;;;;;;;;;;;;;;;10.65;53.18;102183.16;5043013;28;19928;-77
2022/04/30 07:11:45;;;;;;;;;;;;;;;10.66;54.06;102184.03;5047149;28;20020;-77
2022/04/30 07:14:10;;;;;;;;;;;;;;;10.54;53.27;102182.28;5048575;28;20382;-77
2022/04/30 07:16:35;;;;;;;;;;;;;;;10.39;52.74;102188.34;5051768;28;19920;-80
2022/04/30 07:19:03;;;;;;;;;;;;;;;10.51;52.62;102182.28;5027681;28;20297;-80
2022/04/30 07:21:29;;;;;;;;;;;;;;;10.62;53.29;102179.69;5044241;28;19927;-79
2022/04/30 07:23:55;;;;;;;;;;;;;;;10.62;53.63;102190.09;5044017;28;19936;-80
2022/04/30 07:26:34;;;;;;;;;;;;;;;10.69;52.25;102173.66;5094279;27;20429;-80
2022/04/30 07:29:00;;;;;;;;;;;;;;;10.74;53.44;102179.72;5079563;28;19967;-80
2022/04/30 07:31:25;;;;;;;;;;;;;;;10.83;52.73;102179.72;5082609;28;20633;-79
2022/04/30 07:33:51;;;;;;;;;;;;;;;10.56;51.99;102185.75;5069942;28;20788;-80
2022/04/30 07:36:17;;;;;;;;;;;;;;;10.66;51.56;102181.44;5081898;28;19964;-77
2022/04/30 07:38:42;;;;;;;;;;;;;;;10.60;51.91;102187.50;5083425;28;19959;-78
2022/04/30 07:41:07;;;;;;;;;;;;;;;10.72;50.74;102174.53;5080151;28;19912;-77
2022/04/30 07:43:33;;;;;;;;;;;;;;;10.77;50.91;102180.59;5074347;28;19921;-80
2022/04/30 07:45:58;;;;;;;;;;;;;;;10.59;50.87;102180.56;5079746;28;19924;-80
2022/04/30 07:48:23;;;;;;;;;;;;;;;10.66;50.83;102182.31;5076745;28;19920;-80
2022/04/30 07:50:49;;;;;;;;;;;;;;;10.63;50.17;102177.13;5084169;28;20355;-80
2022/04/30 07:53:14;;;;;;;;;;;;;;;10.86;51.09;102182.31;5083268;28;19916;-77
2022/04/30 07:55:42;;;;;;;;;;;;;;;10.94;50.68;102177.97;5082709;28;19924;-80
2022/04/30 07:58:07;;;;;;;;;;;;;;;10.82;51.23;102176.25;5081993;28;19921;-77
2022/04/30 08:00:33;;;;;;;;;;;;;;;10.96;50.35;102174.53;5079532;28;19928;-77
2022/04/30 08:02:59;;;;;;;;;;;;;;;10.72;52.11;102176.25;5082320;28;20543;-80
2022/04/30 08:05:26;;;;;;;;;;;;;;;10.72;52.36;102171.94;5083523;28;19928;-80
2022/04/30 08:07:54;;;;;;;;;;;;;;;10.82;51.95;102173.66;5085183;28;19924;-80
2022/04/30 08:10:19;;;;;;;;;;;;;;;11.06;51.52;102169.34;5079196;28;19965;-80
2022/04/30 08:12:45;;;;;;;;;;;;;;;11.21;51.41;102167.56;5084127;28;20015;-73
2022/04/30 08:15:10;;;;;;;;;;;;;;;10.96;53.33;102171.94;5082401;28;19920;-73
2022/04/30 08:17:38;;;;;;;;;;;;;;;11.19;50.50;102171.91;5075268;28;20078;-77
2022/04/30 08:20:03;;;;;;;;;;;;;;;11.18;51.60;102175.38;5084739;28;19916;-77
2022/04/30 08:22:29;;;;;;;;;;;;;;;11.21;51.81;102171.88;5082006;28;19965;-77
2022/04/30 08:24:54;;;;;;;;;;;;;;;11.16;51.52;102165.84;5082262;28;19924;-73
2022/04/30 08:27:20;;;;;;;;;;;;;;;11.12;51.14;102157.16;5073292;28;19920;-77
2022/04/30 08:29:45;;;;;;;;;;;;;;;11.19;51.08;102163.22;5073404;28;19927;-77
2022/04/30 08:32:10;;;;;;;;;;;;;;;11.22;50.42;102164.09;5081975;28;19921;-77
2022/04/30 08:34:36;;;;;;;;;;;;;;;11.06;50.67;102170.19;5082818;28;20317;-80
2022/04/30 08:37:01;;;;;;;;;;;;;;;11.08;51.20;102172.78;5068812;28;19963;-77
2022/04/30 08:39:27;;;;;;;;;;;;;;;11.21;52.03;102164.09;5081735;28;21364;-81
2022/04/30 08:41:52;;;;;;;;;;;;;;;11.35;51.04;102165.88;5061427;28;20007;-80
2022/04/30 08:44:18;;;;;;;;;;;;;;;11.33;51.21;102164.97;5062788;28;20028;-79
2022/04/30 08:46:44;;;;;;;;;;;;;;;11.09;50.25;102154.56;5067053;28;19916;-80
2022/04/30 08:49:09;;;;;;;;;;;;;;;11.10;49.99;102168.44;5062290;28;19935;-77
2022/04/30 08:51:35;;;;;;;;;;;;;;;11.30;49.96;102162.38;5066075;28;19928;-74
2022/04/30 08:54:00;;;;;;;;;;;;;;;11.33;49.89;102162.38;5064701;28;20293;-73
2022/04/30 08:56:26;;;;;;;;;;;;;;;11.16;50.27;102164.09;5065692;28;19920;-77
2022/04/30 08:59:00;;;;;;;;;;;;;;;11.39;49.26;102158.88;5065008;28;19917;-78
2022/04/30 09:01:25;;;;;;;;;;;;;;;11.33;49.46;102162.38;5066874;28;19924;-77
2022/04/30 09:03:51;;;;;;;;;;;;;;;11.35;49.17;102171.06;5067933;28;19931;-78
2022/04/30 09:06:19;;;;;;;;;;;;;;;11.22;48.85;102152.81;5060191;28;19933;-78
2022/04/30 09:08:53;;;;;;;;;;;;;;;11.09;50.68;102159.78;5065795;28;19942;-78
2022/04/30 09:11:28;;;;;;;;;;;;;;;11.38;50.88;102152.81;5062370;28;19975;-81
2022/04/30 09:13:53;;;;;;;;;;;;;;;11.52;50.82;102158.00;5061113;28;19931;-78
2022/04/30 09:16:20;;;;;;;;;;;;;;;11.56;49.20;102160.56;5059916;28;19924;-81
2022/04/30 09:18:46;;;;;;;;;;;;;;;11.44;49.53;102151.97;5063012;28;20404;-78
2022/04/30 09:21:15;;;;;;;;;;;;;;;11.32;49.27;102145.06;5061805;28;19920;-78
2022/04/30 09:23:41;;;;;;;;;;;;;;;11.52;48.37;102155.41;5064894;28;19921;-77
2022/04/30 09:26:06;;;;;;;;;;;;;;;11.58;47.38;102150.19;5081108;28;19924;-77
2022/04/30 09:28:33;;;;;;;;;;;;;;;11.66;48.95;102150.13;5057663;28;19981;-78
2022/04/30 09:31:11;;;;;;;;;;;;;;;11.38;50.34;102145.00;5063178;28;20016;-74
2022/04/30 09:33:38;;;;;;;;;;;;;;;11.66;50.04;102139.72;5059769;28;19925;-73
2022/04/30 09:38:51;;;;;;;;;;;;;;;11.74;46.74;102138.81;5060252;28;19928;-73
2022/04/30 09:41:24;;;;;;;;;;;;;;;11.60;47.77;102142.34;5061562;28;19924;-73
2022/04/30 09:44:04;;;;;;;;;;;;;;;11.70;47.88;102144.06;5046437;28;19956;-73
2022/04/30 09:46:30;;;;;;;;;;;;;;;11.73;48.13;102139.72;5060074;28;19972;-78
2022/04/30 09:54:26;;;;;;;;;;;;;;;11.87;46.15;102135.31;5062585;28;20972;-78
2022/04/30 09:56:52;;;;;;;;;;;;;;;11.69;46.10;102131.91;5062593;28;20398;-78
2022/04/30 09:59:21;;;;;;;;;;;;;;;11.69;46.29;102122.38;5062393;28;19916;-78
2022/04/30 10:01:49;;;;;;;;;;;;;;;11.91;48.54;102129.22;5064631;28;19978;-78
2022/04/30 10:04:16;;;;;;;;;;;;;;;11.83;45.99;102119.72;5064685;28;19954;-81
2022/04/30 10:06:45;;;;;;;;;;;;;;;11.96;47.03;102124.84;5061685;28;19920;-81
2022/04/30 10:09:12;;;;;;;;;;;;;;;11.67;46.48;102124.13;5061973;28;19925;-81
2022/04/30 10:11:38;;;;;;;;;;;;;;;11.78;45.66;102124.94;5064042;28;19952;-74
2022/04/30 10:14:09;;;;;;;;;;;;;;;11.83;45.99;102117.97;5055988;28;19959;-74
2022/04/30 10:16:35;;;;;;;;;;;;;;;11.93;45.91;102129.19;5067555;28;19920;-81
2022/04/30 10:19:16;;;;;;;;;;;;;;;11.68;46.27;102119.78;5059486;28;19931;-78
2022/04/30 10:21:41;;;;;;;;;;;;;;;11.71;45.58;102115.41;5065858;28;19927;-74
2022/04/30 10:24:09;;;;;;;;;;;;;;;11.82;46.29;102116.25;5061957;28;19920;-80
2022/04/30 10:26:35;;;;;;;;;;;;;;;11.89;46.80;102114.50;5061755;28;20003;-78
2022/04/30 10:29:01;;;;;;;;;;;;;;;11.96;47.91;102114.44;5065785;28;20433;-78
2022/04/30 10:31:26;;;;;;;;;;;;;;;11.86;47.09;102110.13;5065275;28;19931;-78
2022/04/30 10:33:51;;;;;;;;;;;;;;;11.91;45.06;102113.59;5067667;28;19920;-78
2022/04/30 10:36:19;;;;;;;;;;;;;;;11.98;45.32;102101.38;5064471;28;19939;-78
2022/04/30 10:38:55;;;;;;;;;;;;;;;11.81;46.35;102111.03;5066130;28;19923;-74
2022/04/30 10:41:20;;;;;;;;;;;;;;;11.81;45.87;102106.69;5065554;28;19924;-74
2022/04/30 10:43:46;;;;;;;;;;;;;;;11.99;44.55;102105.72;5070182;28;19985;-74
2022/04/30 10:46:23;;;;;;;;;;;;;;;12.05;45.93;102097.88;5063799;28;19924;-74
2022/04/30 10:48:48;;;;;;;;;;;;;;;12.26;46.55;102091.66;5065191;28;19920;-73
2022/04/30 10:51:15;;;;;;;;;;;;;;;12.25;44.77;102095.13;5061767;28;20407;-81
2022/04/30 10:53:41;;;;;;;;;;;;;;;12.28;45.02;102090.78;5069029;28;19924;-81
2022/04/30 10:56:07;;;;;;;;;;;;;;;12.36;44.67;102089.00;5059790;28;19924;-81
2022/04/30 10:58:34;;;;;;;;;;;;;;;12.35;44.46;102084.66;5063273;28;20411;-81
2022/04/30 11:01:16;;;;;;;;;;;;;;;12.23;43.64;102081.28;5065024;28;20014;-81
2022/04/30 11:03:42;;;;;;;;;;;;;;;12.17;44.55;102079.56;5063533;28;19921;-81
2022/04/30 11:06:11;;;;;;;;;;;;;;;12.26;44.09;102069.09;5068647;28;20014;-78
2022/04/30 11:08:37;;;;;;;;;;;;;;;12.29;44.28;102073.41;5064042;28;19940;-78
2022/04/30 11:11:02;;;;;;;;;;;;;;;12.32;43.75;102047.34;5066466;28;19942;-78
2022/04/30 11:13:27;;;;;;;;;;;;;;;12.36;43.77;102064.69;5065317;28;19924;-78
2022/04/30 11:15:57;;;;;;;;;;;;;;;12.26;44.81;102066.50;5062530;28;19924;-78
2022/04/30 11:18:22;;;;;;;;;;;;;;;12.16;43.36;102057.00;5061229;28;19927;-78
2022/04/30 11:20:48;;;;;;;;;;;;;;;12.40;43.74;102055.94;5065160;28;19921;-74
2022/04/30 11:26:17;;;;;;;;;;;;;;;12.62;43.23;102057.53;5051417;28;19939;-74
2022/04/30 11:28:46;;;;;;;;;;;;;;;12.65;43.56;102060.13;5059582;28;19919;-74
2022/04/30 11:31:18;;;;;;;;;;;;;;;12.69;43.34;102048.78;5062304;28;19916;-74
2022/04/30 11:33:43;;;;;;;;;;;;;;;12.76;43.12;102057.41;5069397;28;19924;-74
2022/04/30 11:36:09;;;;;;;;;;;;;;;12.59;42.09;102048.00;5073348;28;20411;-74
2022/04/30 11:38:34;;;;;;;;;;;;;;;12.74;44.17;102040.91;5081340;28;21125;-73
2022/04/30 11:41:03;;;;;;;;;;;;;;;12.60;42.06;102043.66;5067640;28;19925;-74
2022/04/30 11:43:28;;;;;;;;;;;;;;;12.75;42.50;102046.09;5063126;28;19916;-74
2022/04/30 11:46:01;;;;;;;;;;;;;;;12.81;44.02;102040.00;5064758;28;19977;-74
2022/04/30 11:48:27;;;;;;;;;;;;;;;12.87;43.22;102037.31;5066360;28;19920;-74
2022/04/30 11:50:53;;;;;;;;;;;;;;;12.75;43.46;102038.28;5074206;28;20003;-74
2022/04/30 11:53:19;;;;;;;;;;;;;;;12.68;41.67;102027.94;5069001;28;19927;-74
2022/04/30 11:55:44;;;;;;;;;;;;;;;12.55;42.07;102035.00;5063551;28;20344;-74
2022/04/30 11:58:09;;;;;;;;;;;;;;;12.76;40.91;102031.31;5064636;28;19920;-74
2022/04/30 12:00:35;;;;;;;;;;;;;;;12.84;41.85;102024.31;5065819;28;19927;-74
2022/04/30 12:03:01;;;;;;;;;;;;;;;12.85;42.22;102024.28;5064011;28;20397;-75
2022/04/30 12:05:29;;;;;;;;;;;;;;;12.91;42.67;102019.00;5065493;28;19932;-74
2022/04/30 12:08:00;;;;;;;;;;;;;;;12.96;40.77;102026.75;5066092;28;19920;-74
2022/04/30 12:10:28;;;;;;;;;;;;;;;12.97;41.59;102018.06;5065039;28;20301;-74
2022/04/30 12:12:54;;;;;;;;;;;;;;;13.04;42.60;102019.75;5069846;28;19920;-74
2022/04/30 12:15:27;;;;;;;;;;;;;;;13.00;41.39;102010.22;5070985;28;19917;-78
2022/04/30 12:26:38;;;;;;;;;;;;;;;12.80;41.73;102000.00;5070677;28;19993;-78
2022/04/30 12:29:18;;;;;;;;;;;;;;;12.96;41.82;102001.56;5064182;28;20378;-81
2022/04/30 12:31:48;;;;;;;;;;;;;;;12.96;41.61;101995.47;5063901;28;19921;-78
2022/04/30 12:34:20;;;;;;;;;;;;;;;12.96;44.96;101988.50;5073969;28;20420;-77
2022/04/30 12:36:57;;;;;;;;;;;;;;;13.07;42.29;101991.00;5069471;28;19970;-77
2022/04/30 12:39:23;;;;;;;;;;;;;;;12.98;40.51;101989.38;5073666;28;19981;-78
2022/04/30 12:41:52;;;;;;;;;;;;;;;12.99;41.81;101990.22;5072246;28;19951;-78
2022/04/30 12:44:18;;;;;;;;;;;;;;;13.04;40.91;101986.69;5069827;28;19921;-80
2022/04/30 12:46:44;;;;;;;;;;;;;;;13.08;40.41;101980.53;5067631;28;19927;-81
2022/04/30 12:49:11;;;;;;;;;;;;;;;13.14;40.20;101977.00;5055525;28;19921;-80
2022/04/30 12:51:36;;;;;;;;;;;;;;;13.08;40.49;101990.13;5073493;28;19920;-80
2022/04/30 12:54:01;;;;;;;;;;;;;;;13.14;40.39;101975.25;5068520;28;19982;-81
2022/04/30 12:56:27;;;;;;;;;;;;;;;13.12;40.32;101971.81;5068225;28;19943;-81
2022/04/30 12:58:53;;;;;;;;;;;;;;;13.18;41.05;101966.50;5062810;28;20290;-81
2022/04/30 13:01:18;;;;;;;;;;;;;;;13.07;40.72;101967.53;5068774;28;19931;-80
2022/04/30 13:03:44;;;;;;;;;;;;;;;13.12;41.36;101977.03;5071609;28;19920;-80
2022/04/30 13:06:09;;;;;;;;;;;;;;;13.22;41.25;101970.78;5070727;28;20016;-81
2022/04/30 13:14:03;;;;;;;;;;;;;;;13.13;39.76;101957.03;5065403;28;19927;-78
2022/04/30 13:16:28;;;;;;;;;;;;;;;13.05;39.85;101957.09;5061538;28;20369;-78
2022/04/30 13:18:53;;;;;;;;;;;;;;;13.18;39.72;101944.78;5065465;28;19977;-78
2022/04/30 13:21:18;;;;;;;;;;;;;;;13.16;40.12;101943.94;5075830;28;19920;-78